createdAt,value
2018-10-16T00:00:17.737Z,71.93
2018-10-16T00:01:17.738Z,72.15
2018-10-16T00:02:17.755Z,72.03
2018-10-16T00:03:17.877Z,71.66
2018-10-16T00:04:17.804Z,72.1
2018-10-16T00:05:17.939Z,71.27
2018-10-16T00:06:17.824Z,70.99
2018-10-16T00:07:17.799Z,71.91
2018-10-16T00:08:17.930Z,71.76
2018-10-16T00:09:17.721Z,71.87
2018-10-16T00:10:17.947Z,71.67
2018-10-16T00:11:17.751Z,71.43
2018-10-16T00:12:17.961Z,71.17
2018-10-16T00:13:18.172Z,71.43
2018-10-16T00:14:17.654Z,71.65
2018-10-16T00:15:17.863Z,71.06
2018-10-16T00:16:17.885Z,71.53
2018-10-16T00:17:17.717Z,71.28
2018-10-16T00:18:18.146Z,71.56
2018-10-16T00:19:18.143Z,71.6
2018-10-16T00:20:17.766Z,71.49
2018-10-16T00:21:17.953Z,72.2
2018-10-16T00:22:17.823Z,71.72
2018-10-16T00:23:17.905Z,72.07
2018-10-16T00:24:17.930Z,72.29
2018-10-16T00:25:17.808Z,72.25
2018-10-16T00:26:17.794Z,72.25
2018-10-16T00:27:17.789Z,72.1
2018-10-16T00:28:17.898Z,72.04
2018-10-16T00:29:17.729Z,71.97
2018-10-16T00:30:17.779Z,72.29
2018-10-16T00:31:17.816Z,71.54
2018-10-16T00:32:17.751Z,72.55
2018-10-16T00:33:18.111Z,72.73
2018-10-16T00:34:17.899Z,72.54
2018-10-16T00:35:17.858Z,72.38
2018-10-16T00:36:17.704Z,72.67
2018-10-16T00:37:17.851Z,72.62
2018-10-16T00:38:17.913Z,72.77
2018-10-16T00:39:17.769Z,72.36
2018-10-16T00:40:18.047Z,72.25
2018-10-16T00:41:17.933Z,72.63
2018-10-16T00:42:18.160Z,72.75
2018-10-16T00:43:17.900Z,72.84
2018-10-16T00:44:17.801Z,72.75
2018-10-16T00:45:17.918Z,72.74
2018-10-16T00:46:17.702Z,73.02
2018-10-16T00:47:17.995Z,72.98
2018-10-16T00:48:17.814Z,72.73
2018-10-16T00:49:17.708Z,72.76
2018-10-16T00:50:18.371Z,72.65
2018-10-16T00:51:17.760Z,72.63
2018-10-16T00:52:17.747Z,72.87
2018-10-16T00:53:18.181Z,72.98
2018-10-16T00:54:17.939Z,73.04
2018-10-16T00:55:17.691Z,73.08
2018-10-16T00:56:17.764Z,73.04
2018-10-16T00:57:17.670Z,73.04
2018-10-16T00:58:17.831Z,73.2
2018-10-16T00:59:17.671Z,73.17
2018-10-16T01:00:17.636Z,73
2018-10-16T01:01:17.694Z,72.93
2018-10-16T01:02:17.745Z,72.95
2018-10-16T01:03:17.743Z,73.17
2018-10-16T01:04:17.747Z,73.24
2018-10-16T01:05:17.774Z,72.94
2018-10-16T01:06:17.762Z,72.92
2018-10-16T01:07:17.716Z,73.04
2018-10-16T01:08:17.777Z,72.96
2018-10-16T01:09:17.700Z,73.27
2018-10-16T01:10:17.685Z,73.15
2018-10-16T01:11:17.953Z,73.1
2018-10-16T01:12:17.733Z,73.31
2018-10-16T01:13:17.959Z,73.28
2018-10-16T01:14:17.715Z,73.19
2018-10-16T01:15:17.750Z,73.02
2018-10-16T01:16:17.832Z,73.05
2018-10-16T01:17:17.690Z,73.24
2018-10-16T01:18:17.680Z,73.33
2018-10-16T01:19:17.722Z,73.35
2018-10-16T01:20:17.644Z,73.36
2018-10-16T01:21:17.850Z,73.18
2018-10-16T01:22:17.828Z,73.32
2018-10-16T01:23:17.627Z,73.15
2018-10-16T01:24:17.691Z,73.21
2018-10-16T01:25:17.698Z,73.05
2018-10-16T01:26:17.736Z,73.01
2018-10-16T01:27:18.035Z,73.05
2018-10-16T01:28:17.787Z,72.77
2018-10-16T01:29:17.688Z,73.01
2018-10-16T01:30:17.740Z,73.01
2018-10-16T01:31:17.891Z,72.98
2018-10-16T01:32:17.960Z,73.11
2018-10-16T01:33:18.099Z,73.35
2018-10-16T01:34:17.658Z,73.2
2018-10-16T01:35:17.740Z,73.21
2018-10-16T01:36:17.663Z,73.04
2018-10-16T01:37:17.818Z,73.17
2018-10-16T01:38:17.835Z,73.05
2018-10-16T01:39:17.631Z,73.37
2018-10-16T01:40:17.709Z,73.19
2018-10-16T01:41:17.580Z,73.39
2018-10-16T01:42:17.723Z,73.02
2018-10-16T01:43:17.725Z,73.25
2018-10-16T01:44:17.791Z,73.09
2018-10-16T01:45:17.676Z,73.59
2018-10-16T01:46:17.720Z,72.94
2018-10-16T01:47:17.704Z,73.35
2018-10-16T01:48:17.601Z,73.72
2018-10-16T01:49:17.643Z,73.8
2018-10-16T01:50:17.707Z,73.85
2018-10-16T01:51:17.631Z,73.93
2018-10-16T01:52:17.753Z,73.83
2018-10-16T01:53:17.634Z,73.78
2018-10-16T01:54:17.655Z,74.06
2018-10-16T01:55:17.808Z,73.71
2018-10-16T01:56:17.713Z,73.78
2018-10-16T01:57:17.660Z,73.84
2018-10-16T01:58:17.970Z,73.88
2018-10-16T01:59:17.610Z,73.84
2018-10-16T02:00:17.597Z,74.18
2018-10-16T02:01:17.796Z,74.12
2018-10-16T02:02:17.566Z,74.25
2018-10-16T02:03:17.585Z,74.37
2018-10-16T02:04:17.635Z,74.33
2018-10-16T02:05:17.601Z,74.23
2018-10-16T02:06:17.655Z,74.29
2018-10-16T02:07:17.684Z,74.17
2018-10-16T02:08:17.618Z,74.03
2018-10-16T02:09:18.243Z,73.91
2018-10-16T02:10:17.707Z,73.89
2018-10-16T02:11:17.676Z,73.81
2018-10-16T02:12:17.573Z,73.85
2018-10-16T02:13:17.676Z,73.65
2018-10-16T02:14:17.632Z,73.65
2018-10-16T02:15:17.596Z,73.8
2018-10-16T02:16:17.802Z,73.87
2018-10-16T02:17:17.935Z,74.12
2018-10-16T02:18:18.004Z,74.6
2018-10-16T02:19:17.587Z,74.34
2018-10-16T02:20:17.619Z,74.44
2018-10-16T02:21:17.634Z,74.42
2018-10-16T02:22:17.785Z,74.51
2018-10-16T02:23:17.694Z,74.41
2018-10-16T02:24:17.707Z,74.6
2018-10-16T02:25:17.841Z,74.87
2018-10-16T02:26:17.679Z,74.71
2018-10-16T02:27:17.556Z,74.55
2018-10-16T02:28:17.583Z,74.4
2018-10-16T02:29:17.869Z,74.84
2018-10-16T02:30:17.878Z,74.63
2018-10-16T02:31:17.545Z,74.64
2018-10-16T02:32:17.532Z,74.66
2018-10-16T02:33:17.542Z,75.14
2018-10-16T02:34:17.563Z,75.1
2018-10-16T02:35:17.634Z,74.91
2018-10-16T02:36:17.639Z,74.8
2018-10-16T02:37:17.583Z,74.97
2018-10-16T02:38:17.489Z,74.92
2018-10-16T02:39:17.784Z,74.67
2018-10-16T02:40:17.530Z,75
2018-10-16T02:41:17.499Z,75.09
2018-10-16T02:42:17.550Z,74.9
2018-10-16T02:43:17.584Z,74.78
2018-10-16T02:44:17.618Z,74.78
2018-10-16T02:45:17.599Z,74.81
2018-10-16T02:46:17.554Z,74.39
2018-10-16T02:47:17.539Z,74.7
2018-10-16T02:48:17.604Z,75
2018-10-16T02:49:17.805Z,74.64
2018-10-16T02:50:17.542Z,75.01
2018-10-16T02:51:17.581Z,74.93
2018-10-16T02:52:17.597Z,74.58
2018-10-16T02:53:17.965Z,74.98
2018-10-16T02:54:17.618Z,75.01
2018-10-16T02:55:17.608Z,74.92
2018-10-16T02:56:17.617Z,74.54
2018-10-16T02:57:17.575Z,74.38
2018-10-16T02:58:17.763Z,75.03
2018-10-16T02:59:17.683Z,74.67
2018-10-16T03:00:17.609Z,74.6
2018-10-16T03:01:17.526Z,74.26
2018-10-16T03:02:17.723Z,74.55
2018-10-16T03:03:17.563Z,74.65
2018-10-16T03:04:17.510Z,74.39
2018-10-16T03:05:18.537Z,74.33
2018-10-16T03:06:17.602Z,74.54
2018-10-16T03:07:17.921Z,74.19
2018-10-16T03:08:17.574Z,74.48
2018-10-16T03:09:17.680Z,74.65
2018-10-16T03:10:17.619Z,75.24
2018-10-16T03:11:17.697Z,75.31
2018-10-16T03:12:17.654Z,74.93
2018-10-16T03:13:17.567Z,74.82
2018-10-16T03:14:17.608Z,74.44
2018-10-16T03:15:17.571Z,75.47
2018-10-16T03:16:17.689Z,75.5
2018-10-16T03:17:17.682Z,75
2018-10-16T03:18:17.644Z,74.83
2018-10-16T03:19:17.647Z,75
2018-10-16T03:20:17.654Z,75.37
2018-10-16T03:21:17.920Z,75.43
2018-10-16T03:22:17.925Z,75.43
2018-10-16T03:24:17.980Z,75.56
2018-10-16T03:25:17.587Z,75.21
2018-10-16T03:26:17.474Z,74.96
2018-10-16T03:27:17.502Z,75.08
2018-10-16T03:28:17.428Z,75.32
2018-10-16T03:29:17.546Z,75.29
2018-10-16T03:30:17.487Z,75.32
2018-10-16T03:31:17.426Z,75.35
2018-10-16T03:32:17.597Z,75.26
2018-10-16T03:33:17.558Z,75.53
2018-10-16T03:34:17.407Z,75.02
2018-10-16T03:35:17.375Z,75.39
2018-10-16T03:36:17.377Z,75.15
2018-10-16T03:37:17.492Z,75.26
2018-10-16T03:38:17.652Z,75.45
2018-10-16T03:39:17.384Z,75.32
2018-10-16T03:40:17.407Z,75.66
2018-10-16T03:41:17.413Z,75.18
2018-10-16T03:42:17.466Z,75.76
2018-10-16T03:43:17.396Z,75.71
2018-10-16T03:44:17.375Z,76.33
2018-10-16T03:45:17.373Z,76.51
2018-10-16T03:46:17.447Z,76.28
2018-10-16T03:47:17.368Z,75.82
2018-10-16T03:48:17.448Z,75.66
2018-10-16T03:49:17.577Z,76.22
2018-10-16T03:50:17.378Z,75.98
2018-10-16T03:51:17.389Z,75.89
2018-10-16T03:52:17.394Z,75.69
2018-10-16T03:53:17.947Z,75.91
2018-10-16T03:54:17.446Z,75.46
2018-10-16T03:55:17.390Z,75.96
2018-10-16T03:56:17.523Z,75.65
2018-10-16T03:57:17.536Z,76
2018-10-16T03:58:17.417Z,76.55
2018-10-16T03:59:17.372Z,76.67
2018-10-16T04:00:17.347Z,77.29
2018-10-16T04:01:17.389Z,77.39
2018-10-16T04:02:17.416Z,77.14
2018-10-16T04:03:17.420Z,77.07
2018-10-16T04:04:17.357Z,77.14
2018-10-16T04:05:17.345Z,76.96
2018-10-16T04:06:17.338Z,77.24
2018-10-16T04:07:17.562Z,77.56
2018-10-16T04:08:17.558Z,77
2018-10-16T04:09:17.349Z,77.17
2018-10-16T04:10:17.329Z,76.75
2018-10-16T04:11:17.358Z,76.63
2018-10-16T04:12:17.331Z,77.13
2018-10-16T04:13:17.372Z,76.33
2018-10-16T04:14:17.370Z,76.43
2018-10-16T04:15:17.453Z,76.68
2018-10-16T04:16:17.394Z,76.58
2018-10-16T04:17:17.435Z,76.57
2018-10-16T04:18:17.275Z,76.3
2018-10-16T04:19:17.420Z,76.39
2018-10-16T04:20:17.313Z,77.12
2018-10-16T04:21:17.665Z,77.12
2018-10-16T04:22:17.584Z,77.06
2018-10-16T04:23:17.376Z,77.28
2018-10-16T04:24:17.311Z,76.98
2018-10-16T04:25:17.430Z,76.65
2018-10-16T04:26:17.371Z,76.82
2018-10-16T04:27:17.335Z,76.46
2018-10-16T04:28:17.713Z,76.92
2018-10-16T04:29:17.415Z,76.84
2018-10-16T04:30:17.360Z,76.42
2018-10-16T04:31:17.358Z,76.37
2018-10-16T04:32:17.325Z,76.66
2018-10-16T04:33:17.329Z,76.88
2018-10-16T04:34:17.361Z,76.62
2018-10-16T04:35:17.333Z,76.66
2018-10-16T04:36:17.449Z,77.26
2018-10-16T04:37:17.424Z,77.27
2018-10-16T04:38:18.436Z,77.26
2018-10-16T04:39:17.428Z,77.18
2018-10-16T04:40:17.374Z,77.37
2018-10-16T04:41:17.578Z,77.36
2018-10-16T04:42:17.317Z,77.55
2018-10-16T04:43:17.350Z,77.51
2018-10-16T04:44:17.349Z,77.58
2018-10-16T04:46:17.298Z,77.6
2018-10-16T04:47:17.308Z,77.62
2018-10-16T04:48:17.316Z,77.52
2018-10-16T04:49:17.287Z,77.06
2018-10-16T04:50:17.364Z,77.8
2018-10-16T04:51:17.335Z,77.46
2018-10-16T04:52:17.314Z,77.85
2018-10-16T04:53:17.267Z,77.44
2018-10-16T04:54:17.573Z,77.63
2018-10-16T04:55:17.740Z,77.12
2018-10-16T04:56:17.362Z,77.84
2018-10-16T04:57:17.316Z,78.23
2018-10-16T04:58:17.251Z,78.29
2018-10-16T04:59:17.314Z,78.31
2018-10-16T05:00:17.243Z,78.11
2018-10-16T05:01:17.522Z,78.44
2018-10-16T05:02:17.285Z,78.3
2018-10-16T05:03:17.269Z,78.38
2018-10-16T05:04:17.526Z,78.45
2018-10-16T05:05:17.299Z,78.89
2018-10-16T05:07:17.284Z,79
2018-10-16T05:08:17.298Z,79.45
2018-10-16T05:09:17.320Z,79.45
2018-10-16T05:10:17.336Z,79.35
2018-10-16T05:11:17.583Z,79.31
2018-10-16T05:12:17.246Z,79.34
2018-10-16T05:13:17.498Z,79.02
2018-10-16T05:14:17.342Z,79
2018-10-16T05:15:17.559Z,79.31
2018-10-16T05:16:17.475Z,79.02
2018-10-16T05:17:17.425Z,79.33
2018-10-16T05:18:17.291Z,79.22
2018-10-16T05:19:17.448Z,79.14
2018-10-16T05:20:17.339Z,78.71
2018-10-16T05:21:17.243Z,78.84
2018-10-16T05:22:17.374Z,78.62
2018-10-16T05:23:17.636Z,78.24
2018-10-16T05:24:17.282Z,78.22
2018-10-16T05:25:17.297Z,79.06
2018-10-16T05:26:17.320Z,79.33
2018-10-16T05:27:17.354Z,79.78
2018-10-16T05:28:17.433Z,79.92
2018-10-16T05:29:17.262Z,80
2018-10-16T05:30:17.241Z,79.78
2018-10-16T05:31:17.340Z,79.9
2018-10-16T05:32:17.526Z,79.4
2018-10-16T05:33:41.636Z,78.85
2018-10-16T05:34:41.668Z,78.6
2018-10-16T05:35:41.726Z,78.34
2018-10-16T05:36:41.566Z,77.94
2018-10-16T05:37:41.608Z,78.44
2018-10-16T05:38:41.579Z,78.3
2018-10-16T05:39:41.969Z,78.27
2018-10-16T05:40:41.556Z,77.91
2018-10-16T05:41:41.561Z,77.75
2018-10-16T05:42:41.575Z,77.69
2018-10-16T05:43:41.582Z,78
2018-10-16T05:44:41.950Z,77.86
2018-10-16T05:45:41.597Z,77.87
2018-10-16T05:46:41.791Z,77.7
2018-10-16T05:47:41.686Z,77.33
2018-10-16T05:48:41.718Z,77.35
2018-10-16T05:49:41.630Z,77.31
2018-10-16T05:50:41.747Z,77.35
2018-10-16T05:51:41.998Z,77.34
2018-10-16T05:52:41.702Z,77.27
2018-10-16T05:53:41.576Z,77.28
2018-10-16T05:54:41.608Z,77.31
2018-10-16T05:55:41.766Z,77.28
2018-10-16T05:56:41.662Z,77.21
2018-10-16T05:57:41.725Z,77.4
2018-10-16T05:58:41.679Z,77.5
2018-10-16T05:59:41.712Z,77.48
2018-10-16T06:00:41.537Z,77.5
2018-10-16T06:01:41.611Z,77.69
2018-10-16T06:02:42.109Z,77.69
2018-10-16T06:03:41.577Z,77.66
2018-10-16T06:04:41.585Z,77.9
2018-10-16T06:05:41.648Z,77.49
2018-10-16T06:06:41.596Z,77.78
2018-10-16T06:07:41.593Z,77.73
2018-10-16T06:08:41.682Z,77.65
2018-10-16T06:09:41.550Z,77.87
2018-10-16T06:10:41.599Z,77.92
2018-10-16T06:11:41.745Z,77.8
2018-10-16T06:12:41.581Z,77.75
2018-10-16T06:13:41.642Z,77.63
2018-10-16T06:14:41.779Z,77.77
2018-10-16T06:15:41.523Z,77.72
2018-10-16T06:16:41.537Z,77.71
2018-10-16T06:17:41.500Z,77.87
2018-10-16T06:18:41.947Z,78.38
2018-10-16T06:19:41.614Z,78.36
2018-10-16T06:20:41.574Z,78.66
2018-10-16T06:21:41.695Z,78.15
2018-10-16T06:22:41.598Z,77.84
2018-10-16T06:23:41.558Z,77.41
2018-10-16T06:24:41.534Z,77.71
2018-10-16T06:25:41.520Z,77.56
2018-10-16T06:26:41.872Z,77.55
2018-10-16T06:27:41.643Z,77.67
2018-10-16T06:28:41.614Z,78.01
2018-10-16T06:29:41.660Z,78.28
2018-10-16T06:30:41.892Z,78.51
2018-10-16T06:31:41.541Z,78.24
2018-10-16T06:32:41.636Z,77.92
2018-10-16T06:33:41.707Z,77.88
2018-10-16T06:34:41.724Z,77.68
2018-10-16T06:35:41.604Z,77.77
2018-10-16T06:36:41.666Z,77.83
2018-10-16T06:37:41.875Z,77.98
2018-10-16T06:38:41.550Z,77.86
2018-10-16T06:39:41.551Z,77.69
2018-10-16T06:40:41.743Z,77.71
2018-10-16T06:41:41.619Z,77.26
2018-10-16T06:42:41.771Z,77.68
2018-10-16T06:43:41.679Z,77.79
2018-10-16T06:44:41.945Z,78
2018-10-16T06:45:41.545Z,77.72
2018-10-16T06:46:41.848Z,78.03
2018-10-16T06:47:41.667Z,78.23
2018-10-16T06:48:42.126Z,77.81
2018-10-16T06:49:41.507Z,77.83
2018-10-16T06:50:41.478Z,77.94
2018-10-16T06:51:41.469Z,78.27
2018-10-16T06:52:41.506Z,78.18
2018-10-16T06:53:41.533Z,77.8
2018-10-16T06:54:41.523Z,77.98
2018-10-16T06:55:41.466Z,78.31
2018-10-16T06:56:41.543Z,78.18
2018-10-16T06:57:41.515Z,77.99
2018-10-16T06:58:41.481Z,78.58
2018-10-16T06:59:41.524Z,78.37
2018-10-16T07:00:41.515Z,78.36
2018-10-16T07:01:41.492Z,78.18
2018-10-16T07:02:41.484Z,78.67
2018-10-16T07:03:41.465Z,78.49
2018-10-16T07:04:41.473Z,78.59
2018-10-16T07:05:41.484Z,78.45
2018-10-16T07:06:41.379Z,78.19
2018-10-16T07:07:41.497Z,78.72
2018-10-16T07:08:41.762Z,79
2018-10-16T07:09:41.753Z,78.66
2018-10-16T07:10:41.475Z,78.47
2018-10-16T07:11:41.572Z,78.26
2018-10-16T07:12:41.451Z,78.53
2018-10-16T07:13:41.456Z,78.46
2018-10-16T07:14:41.617Z,78.01
2018-10-16T07:15:41.576Z,78.18
2018-10-16T07:17:41.444Z,78.22
2018-10-16T07:18:41.504Z,78.35
2018-10-16T07:19:41.498Z,78.47
2018-10-16T07:20:41.623Z,78.28
2018-10-16T07:21:41.650Z,78.09
2018-10-16T07:22:41.475Z,77.99
2018-10-16T07:23:41.650Z,77.75
2018-10-16T07:24:41.508Z,77.9
2018-10-16T07:25:41.514Z,77.78
2018-10-16T07:26:41.488Z,78.22
2018-10-16T07:27:41.653Z,77.81
2018-10-16T07:28:41.479Z,77.94
2018-10-16T07:29:41.426Z,77.65
2018-10-16T07:30:41.569Z,77.77
2018-10-16T07:31:41.485Z,78.12
2018-10-16T07:32:41.712Z,77.91
2018-10-16T07:33:41.539Z,77.94
2018-10-16T07:34:41.485Z,77.8
2018-10-16T07:35:41.833Z,77.95
2018-10-16T07:36:41.798Z,78.25
2018-10-16T07:37:41.487Z,78.12
2018-10-16T07:38:41.537Z,77.74
2018-10-16T07:39:41.751Z,78.34
2018-10-16T07:40:41.445Z,78.35
2018-10-16T07:41:41.478Z,78.73
2018-10-16T07:42:41.550Z,78.82
2018-10-16T07:43:41.420Z,79.11
2018-10-16T07:44:41.554Z,78.74
2018-10-16T07:45:41.432Z,78.86
2018-10-16T07:46:41.398Z,78.96
2018-10-16T07:47:41.445Z,78.93
2018-10-16T07:48:41.877Z,79.03
2018-10-16T07:49:41.407Z,78.9
2018-10-16T07:50:41.479Z,79.16
2018-10-16T07:51:41.410Z,78.92
2018-10-16T07:52:41.412Z,78.96
2018-10-16T07:53:41.496Z,79.19
2018-10-16T07:54:41.472Z,79.21
2018-10-16T07:55:41.650Z,80.62
2018-10-16T07:56:41.422Z,80.95
2018-10-16T07:57:41.591Z,80.82
2018-10-16T07:58:41.437Z,80.68
2018-10-16T07:59:41.557Z,80.25
2018-10-16T08:00:41.545Z,80.35
2018-10-16T08:01:41.703Z,80.3
2018-10-16T08:02:41.512Z,80.27
2018-10-16T08:03:41.462Z,80.11
2018-10-16T08:04:41.392Z,80.17
2018-10-16T08:05:41.461Z,80.11
2018-10-16T08:06:41.634Z,80.06
2018-10-16T08:07:41.420Z,80.55
2018-10-16T08:08:41.546Z,80.9
2018-10-16T08:09:41.502Z,81.35
2018-10-16T08:11:41.554Z,81.02
2018-10-16T08:12:42.093Z,81.01
2018-10-16T08:13:41.530Z,81.32
2018-10-16T08:14:41.459Z,81.14
2018-10-16T08:15:41.488Z,81.77
2018-10-16T08:16:41.504Z,81.91
2018-10-16T08:17:41.412Z,81.87
2018-10-16T08:18:41.605Z,82.11
2018-10-16T08:19:41.443Z,82
2018-10-16T08:20:41.362Z,81.91
2018-10-16T08:21:41.835Z,81.97
2018-10-16T08:22:41.369Z,81.88
2018-10-16T08:23:41.394Z,81.71
2018-10-16T08:24:41.412Z,81.44
2018-10-16T08:25:41.373Z,80.93
2018-10-16T08:26:41.414Z,81.39
2018-10-16T08:27:41.401Z,81.18
2018-10-16T08:29:41.351Z,80.75
2018-10-16T08:30:41.423Z,81.01
2018-10-16T08:31:41.340Z,80.83
2018-10-16T08:32:41.358Z,80.86
2018-10-16T08:33:41.342Z,80.12
2018-10-16T08:34:41.408Z,79.42
2018-10-16T08:35:41.373Z,78.94
2018-10-16T08:36:41.484Z,79.03
2018-10-16T08:37:41.352Z,79.02
2018-10-16T08:38:41.328Z,78.71
2018-10-16T08:39:41.345Z,78.61
2018-10-16T08:40:41.349Z,78.53
2018-10-16T08:41:41.381Z,78.38
2018-10-16T08:42:41.741Z,78.89
2018-10-16T08:43:41.378Z,78.61
2018-10-16T08:44:41.639Z,78.45
2018-10-16T08:45:41.485Z,78.28
2018-10-16T08:46:41.460Z,78.31
2018-10-16T08:47:41.725Z,77.98
2018-10-16T08:48:41.613Z,77.54
2018-10-16T08:49:41.403Z,77.09
2018-10-16T08:50:41.373Z,76.63
2018-10-16T08:51:41.346Z,76.36
2018-10-16T08:52:41.341Z,75.79
2018-10-16T08:53:41.561Z,75.77
2018-10-16T08:54:41.519Z,75.74
2018-10-16T08:55:41.467Z,75.58
2018-10-16T08:56:41.383Z,74.72
2018-10-16T08:57:41.377Z,75.14
2018-10-16T08:58:41.379Z,75.3
2018-10-16T08:59:41.345Z,75.26
2018-10-16T09:00:41.402Z,75.36
2018-10-16T09:01:41.404Z,74.97
2018-10-16T09:02:41.477Z,75
2018-10-16T09:03:41.334Z,73.76
2018-10-16T09:04:41.716Z,74.36
2018-10-16T09:05:41.317Z,74.34
2018-10-16T09:06:41.388Z,74.3
2018-10-16T09:07:41.329Z,72.8
2018-10-16T09:08:41.545Z,72.84
2018-10-16T09:09:41.382Z,72.68
2018-10-16T09:10:41.554Z,72.61
2018-10-16T09:11:41.433Z,72.29
2018-10-16T09:12:41.301Z,71.86
2018-10-16T09:13:41.332Z,71.81
2018-10-16T09:14:41.357Z,72.11
2018-10-16T09:15:41.346Z,71.84
2018-10-16T09:16:41.313Z,71.74
2018-10-16T09:17:41.370Z,72.01
2018-10-16T09:18:41.392Z,72.08
2018-10-16T09:19:41.674Z,71.66
2018-10-16T09:20:41.359Z,71.45
2018-10-16T09:21:41.308Z,71.47
2018-10-16T09:22:41.269Z,71.76
2018-10-16T09:23:41.317Z,72.04
2018-10-16T09:24:41.475Z,71.74
2018-10-16T09:25:41.770Z,71.17
2018-10-16T09:26:41.322Z,69.94
2018-10-16T09:27:41.473Z,69.33
2018-10-16T09:28:41.255Z,68.72
2018-10-16T09:29:41.269Z,68.88
2018-10-16T09:30:41.304Z,68.13
2018-10-16T09:31:41.283Z,67.29
2018-10-16T09:32:41.290Z,67.09
2018-10-16T09:33:41.609Z,67.2
2018-10-16T09:34:41.272Z,68.06
2018-10-16T09:35:41.268Z,67.65
2018-10-16T09:36:41.311Z,67.2
2018-10-16T09:37:41.576Z,67.35
2018-10-16T09:38:41.528Z,67.57
2018-10-16T09:39:41.334Z,67.94
2018-10-16T09:40:41.319Z,67.62
2018-10-16T09:41:41.317Z,67.18
2018-10-16T09:42:41.455Z,66.37
2018-10-16T09:43:41.457Z,67.21
2018-10-16T09:44:41.478Z,67.71
2018-10-16T09:45:41.469Z,67.53
2018-10-16T09:46:41.491Z,66.9
2018-10-16T09:47:42.175Z,66.71
2018-10-16T09:48:41.598Z,67.14
2018-10-16T09:49:41.598Z,67.1
2018-10-16T09:50:41.405Z,66.64
2018-10-16T09:51:41.325Z,66.5
2018-10-16T09:52:41.721Z,65.4
2018-10-16T09:53:41.275Z,64.15
2018-10-16T09:54:41.239Z,64.49
2018-10-16T09:55:41.341Z,64.63
2018-10-16T09:56:41.352Z,63.71
2018-10-16T09:57:41.628Z,63.58
2018-10-16T09:58:41.239Z,63.5
2018-10-16T09:59:41.362Z,64.67
2018-10-16T10:00:41.250Z,64.48
2018-10-16T10:01:41.387Z,64.36
2018-10-16T10:02:41.390Z,63.65
2018-10-16T10:03:41.399Z,64.02
2018-10-16T10:04:41.401Z,64.89
2018-10-16T10:05:41.304Z,65.16
2018-10-16T10:06:41.305Z,65.02
2018-10-16T10:07:41.315Z,64.83
2018-10-16T10:08:41.416Z,64.3
2018-10-16T10:09:41.333Z,63.87
2018-10-16T10:10:41.214Z,63.02
2018-10-16T10:11:41.289Z,62.5
2018-10-16T10:12:41.463Z,62.88
2018-10-16T10:13:41.233Z,63.58
2018-10-16T10:14:41.401Z,62.91
2018-10-16T10:15:41.250Z,61.68
2018-10-16T10:16:41.495Z,60.85
2018-10-16T10:17:41.281Z,62.2
2018-10-16T10:18:41.373Z,61.37
2018-10-16T10:19:41.526Z,62.31
2018-10-16T10:20:41.304Z,61.66
2018-10-16T10:21:41.252Z,61.9
2018-10-16T10:22:41.239Z,61.7
2018-10-16T10:23:41.232Z,61.47
2018-10-16T10:24:41.209Z,61.49
2018-10-16T10:25:41.212Z,61.94
2018-10-16T10:26:41.220Z,61.37
2018-10-16T10:27:41.367Z,60.87
2018-10-16T10:28:41.278Z,60.77
2018-10-16T10:29:41.448Z,61.74
2018-10-16T10:30:41.587Z,60.1
2018-10-16T10:31:41.249Z,59.53
2018-10-16T10:32:41.517Z,59.14
2018-10-16T10:33:41.709Z,58.4
2018-10-16T10:34:41.219Z,58.46
2018-10-16T10:35:41.240Z,57.75
2018-10-16T10:36:41.315Z,57.94
2018-10-16T10:37:41.232Z,57.95
2018-10-16T10:38:41.262Z,58.88
2018-10-16T10:39:41.245Z,59.41
2018-10-16T10:40:41.338Z,59.01
2018-10-16T10:41:41.229Z,58.43
2018-10-16T10:42:41.347Z,59.58
2018-10-16T10:43:41.175Z,58.84
2018-10-16T10:44:41.279Z,59.41
2018-10-16T10:45:41.370Z,57.98
2018-10-16T10:46:41.174Z,58.61
2018-10-16T10:47:41.607Z,57.54
2018-10-16T10:48:41.209Z,56.56
2018-10-16T10:49:41.286Z,56.75
2018-10-16T10:50:41.674Z,56.48
2018-10-16T10:51:41.614Z,56.74
2018-10-16T10:52:41.321Z,56.59
2018-10-16T10:53:41.179Z,56.34
2018-10-16T10:54:41.170Z,56.47
2018-10-16T10:55:41.201Z,56.23
2018-10-16T10:56:41.199Z,56.5
2018-10-16T10:57:41.370Z,56.55
2018-10-16T10:58:41.363Z,56.66
2018-10-16T10:59:41.207Z,57.43
2018-10-16T11:00:41.207Z,56.45
2018-10-16T11:01:41.378Z,56.33
2018-10-16T11:02:41.194Z,55.92
2018-10-16T11:03:41.829Z,56.45
2018-10-16T11:04:41.277Z,56.9
2018-10-16T11:05:41.296Z,55.46
2018-10-16T11:06:41.143Z,55.57
2018-10-16T11:07:41.685Z,55.43
2018-10-16T11:08:41.304Z,54.78
2018-10-16T11:09:41.176Z,54.71
2018-10-16T11:10:41.276Z,54.73
2018-10-16T11:11:40.754Z,55.17
2018-10-16T11:12:41.351Z,55.17
2018-10-16T11:13:41.136Z,54.43
2018-10-16T11:14:41.499Z,54.98
2018-10-16T11:15:41.388Z,55.02
2018-10-16T11:16:41.135Z,54.79
2018-10-16T11:17:41.236Z,55.37
2018-10-16T11:18:41.208Z,55.8
2018-10-16T11:19:41.184Z,54.9
2018-10-16T11:20:41.290Z,54.04
2018-10-16T11:21:41.171Z,53.97
2018-10-16T11:22:41.254Z,53.94
2018-10-16T11:23:41.149Z,53.72
2018-10-16T11:24:41.339Z,54.23
2018-10-16T11:25:41.167Z,54.3
2018-10-16T11:26:41.223Z,54.75
2018-10-16T11:27:41.370Z,54.56
2018-10-16T11:28:41.189Z,53.78
2018-10-16T11:29:41.311Z,54.08
2018-10-16T11:30:41.410Z,53.52
2018-10-16T11:31:41.184Z,53
2018-10-16T11:32:41.155Z,52.7
2018-10-16T11:33:41.140Z,52.97
2018-10-16T11:34:41.138Z,53.94
2018-10-16T11:35:41.184Z,53.68
2018-10-16T11:36:41.529Z,53.83
2018-10-16T11:37:41.638Z,52.99
2018-10-16T11:38:41.168Z,53.16
2018-10-16T11:39:41.107Z,53.11
2018-10-16T11:40:41.119Z,53.58
2018-10-16T11:41:41.155Z,53.38
2018-10-16T11:42:41.466Z,53.18
2018-10-16T11:43:41.081Z,52.6
2018-10-16T11:44:41.372Z,52.05
2018-10-16T11:45:41.267Z,52.22
2018-10-16T11:46:41.280Z,52.36
2018-10-16T11:47:41.211Z,52.34
2018-10-16T11:48:41.186Z,52.49
2018-10-16T11:49:41.109Z,52.67
2018-10-16T11:50:41.414Z,52.56
2018-10-16T11:51:41.117Z,53.29
2018-10-16T11:52:41.438Z,53.37
2018-10-16T11:53:41.129Z,53.65
2018-10-16T11:54:41.589Z,53.8
2018-10-16T11:55:41.120Z,53.28
2018-10-16T11:56:41.197Z,53.23
2018-10-16T11:57:41.356Z,53.83
2018-10-16T11:58:41.129Z,52.3
2018-10-16T11:59:41.105Z,52.28
2018-10-16T12:00:41.279Z,52.81
2018-10-16T12:01:41.090Z,52.71
2018-10-16T12:02:41.240Z,52.3
2018-10-16T12:03:41.094Z,52.39
2018-10-16T12:04:41.158Z,52.28
2018-10-16T12:05:41.163Z,52.57
2018-10-16T12:06:41.148Z,52.84
2018-10-16T12:07:41.156Z,52.86
2018-10-16T12:08:41.470Z,51.98
2018-10-16T12:09:41.355Z,51.95
2018-10-16T12:10:41.105Z,52.04
2018-10-16T12:11:41.116Z,51.75
2018-10-16T12:12:41.123Z,51.86
2018-10-16T12:13:41.144Z,52.21
2018-10-16T12:14:41.318Z,51.4
2018-10-16T12:15:41.090Z,51.28
2018-10-16T12:16:41.456Z,51.11
2018-10-16T12:17:41.291Z,51.36
2018-10-16T12:18:41.116Z,52.14
2018-10-16T12:19:41.488Z,51.07
2018-10-16T12:20:41.185Z,51.02
2018-10-16T12:21:41.062Z,50.79
2018-10-16T12:22:41.236Z,50.9
2018-10-16T12:23:41.709Z,50.95
2018-10-16T12:24:41.209Z,51.91
2018-10-16T12:25:41.119Z,51.41
2018-10-16T12:26:41.116Z,50.78
2018-10-16T12:27:41.279Z,50.42
2018-10-16T12:28:41.072Z,50.45
2018-10-16T12:29:41.145Z,50.53
2018-10-16T12:30:41.275Z,50.88
2018-10-16T12:31:41.048Z,50.49
2018-10-16T12:32:41.226Z,49.72
2018-10-16T12:33:41.162Z,50.36
2018-10-16T12:34:41.156Z,50.46
2018-10-16T12:35:41.292Z,50.87
2018-10-16T12:36:41.090Z,50.3
2018-10-16T12:37:41.178Z,50.7
2018-10-16T12:38:41.189Z,50.76
2018-10-16T12:39:41.128Z,50.84
2018-10-16T12:40:41.241Z,50.53
2018-10-16T12:41:41.160Z,50.9
2018-10-16T12:42:41.273Z,50.58
2018-10-16T12:43:41.407Z,50.51
2018-10-16T12:44:41.076Z,51.08
2018-10-16T12:45:42.312Z,51.12
2018-10-16T12:46:41.067Z,50.52
2018-10-16T12:47:41.075Z,50.64
2018-10-16T12:48:41.095Z,50.87
2018-10-16T12:49:41.087Z,51.08
2018-10-16T12:50:41.208Z,50.97
2018-10-16T12:51:41.036Z,50.98
2018-10-16T12:52:41.123Z,50.04
2018-10-16T12:53:41.092Z,50.38
2018-10-16T12:54:41.055Z,50.74
2018-10-16T12:55:41.251Z,50.95
2018-10-16T12:56:41.330Z,51.1
2018-10-16T12:57:41.033Z,50.82
2018-10-16T12:58:41.034Z,51.12
2018-10-16T12:59:41.026Z,51.09
2018-10-16T13:00:41.183Z,51.16
2018-10-16T13:01:41.030Z,51.88
2018-10-16T13:02:41.057Z,51.26